sensor_id;sensor_type;location;lat;lon;timestamp;temperature;humidity
2729;DHT22;1372;47.956;7.830;2023-05-17T00:00:11;7.40;99.90
2729;DHT22;1372;47.956;7.830;2023-05-17T00:02:40;7.30;99.90
2729;DHT22;1372;47.956;7.830;2023-05-17T00:05:09;7.30;99.90
2729;DHT22;1372;47.956;7.830;2023-05-17T00:07:38;7.40;99.90
2729;DHT22;1372;47.956;7.830;2023-05-17T00:10:12;7.40;99.90
2729;DHT22;1372;47.956;7.830;2023-05-17T00:12:41;7.30;99.90
2729;DHT22;1372;47.956;7.830;2023-05-17T00:15:10;7.40;99.90
2729;DHT22;1372;47.956;7.830;2023-05-17T00:17:40;7.30;99.90
2729;DHT22;1372;47.956;7.830;2023-05-17T00:20:10;7.30;99.90
2729;DHT22;1372;47.956;7.830;2023-05-17T00:22:39;7.40;99.90
2729;DHT22;1372;47.956;7.830;2023-05-17T00:25:09;7.40;99.90
2729;DHT22;1372;47.956;7.830;2023-05-17T00:27:39;7.30;99.90
2729;DHT22;1372;47.956;7.830;2023-05-17T00:30:09;7.30;99.90
2729;DHT22;1372;47.956;7.830;2023-05-17T00:32:38;7.20;99.90
2729;DHT22;1372;47.956;7.830;2023-05-17T00:35:07;7.30;99.90
2729;DHT22;1372;47.956;7.830;2023-05-17T00:37:36;7.30;99.90
2729;DHT22;1372;47.956;7.830;2023-05-17T00:40:06;7.30;99.90
2729;DHT22;1372;47.956;7.830;2023-05-17T00:42:35;7.30;99.90
2729;DHT22;1372;47.956;7.830;2023-05-17T00:45:07;7.20;99.90
2729;DHT22;1372;47.956;7.830;2023-05-17T00:47:37;7.20;99.90
2729;DHT22;1372;47.956;7.830;2023-05-17T00:50:06;7.20;99.90
2729;DHT22;1372;47.956;7.830;2023-05-17T00:52:36;7.10;99.90
2729;DHT22;1372;47.956;7.830;2023-05-17T00:55:06;7.00;99.90
2729;DHT22;1372;47.956;7.830;2023-05-17T00:57:38;6.90;99.90
2729;DHT22;1372;47.956;7.830;2023-05-17T01:00:11;7.00;99.90
2729;DHT22;1372;47.956;7.830;2023-05-17T01:02:41;6.90;99.90
2729;DHT22;1372;47.956;7.830;2023-05-17T01:05:11;6.90;99.90
2729;DHT22;1372;47.956;7.830;2023-05-17T01:07:42;6.80;99.90
2729;DHT22;1372;47.956;7.830;2023-05-17T01:10:11;6.80;99.90
2729;DHT22;1372;47.956;7.830;2023-05-17T01:12:49;6.80;99.90
2729;DHT22;1372;47.956;7.830;2023-05-17T01:15:26;6.70;99.90
2729;DHT22;1372;47.956;7.830;2023-05-17T01:18:05;6.70;99.90
2729;DHT22;1372;47.956;7.830;2023-05-17T01:20:40;6.70;99.90
2729;DHT22;1372;47.956;7.830;2023-05-17T01:23:26;6.50;99.90
2729;DHT22;1372;47.956;7.830;2023-05-17T01:26:07;6.50;99.90
2729;DHT22;1372;47.956;7.830;2023-05-17T01:28:44;6.40;99.90
2729;DHT22;1372;47.956;7.830;2023-05-17T01:31:14;6.60;99.90
2729;DHT22;1372;47.956;7.830;2023-05-17T01:33:44;6.60;99.90
2729;DHT22;1372;47.956;7.830;2023-05-17T01:36:12;6.60;99.90
2729;DHT22;1372;47.956;7.830;2023-05-17T01:38:41;6.70;99.90
2729;DHT22;1372;47.956;7.830;2023-05-17T01:41:15;6.70;99.90
2729;DHT22;1372;47.956;7.830;2023-05-17T01:43:53;6.60;99.90
2729;DHT22;1372;47.956;7.830;2023-05-17T01:46:27;6.70;99.90
2729;DHT22;1372;47.956;7.830;2023-05-17T01:49:05;6.70;99.90
2729;DHT22;1372;47.956;7.830;2023-05-17T01:51:43;6.60;99.90
2729;DHT22;1372;47.956;7.830;2023-05-17T01:54:14;6.50;99.90
2729;DHT22;1372;47.956;7.830;2023-05-17T01:56:54;6.60;99.90
2729;DHT22;1372;47.956;7.830;2023-05-17T01:59:28;6.50;99.90
2729;DHT22;1372;47.956;7.830;2023-05-17T02:02:00;6.50;99.90
2729;DHT22;1372;47.956;7.830;2023-05-17T02:04:35;6.50;99.90
2729;DHT22;1372;47.956;7.830;2023-05-17T02:07:04;6.50;99.90
2729;DHT22;1372;47.956;7.830;2023-05-17T02:09:32;6.50;99.90
2729;DHT22;1372;47.956;7.830;2023-05-17T02:12:01;6.60;99.90
2729;DHT22;1372;47.956;7.830;2023-05-17T02:14:31;6.50;99.90
2729;DHT22;1372;47.956;7.830;2023-05-17T02:17:00;6.40;99.90
2729;DHT22;1372;47.956;7.830;2023-05-17T02:19:32;6.50;99.90
2729;DHT22;1372;47.956;7.830;2023-05-17T02:22:01;6.60;99.90
2729;DHT22;1372;47.956;7.830;2023-05-17T02:24:29;6.50;99.90
2729;DHT22;1372;47.956;7.830;2023-05-17T02:26:58;6.50;99.90
2729;DHT22;1372;47.956;7.830;2023-05-17T02:29:30;6.50;99.90
2729;DHT22;1372;47.956;7.830;2023-05-17T02:32:02;6.50;99.90
2729;DHT22;1372;47.956;7.830;2023-05-17T02:34:32;6.50;99.90
2729;DHT22;1372;47.956;7.830;2023-05-17T02:37:01;6.50;99.90
2729;DHT22;1372;47.956;7.830;2023-05-17T02:39:31;6.50;99.90
2729;DHT22;1372;47.956;7.830;2023-05-17T02:42:00;6.40;99.90
2729;DHT22;1372;47.956;7.830;2023-05-17T02:44:30;6.40;99.90
2729;DHT22;1372;47.956;7.830;2023-05-17T02:47:01;6.40;99.90
2729;DHT22;1372;47.956;7.830;2023-05-17T02:49:30;6.40;99.90
2729;DHT22;1372;47.956;7.830;2023-05-17T02:51:59;6.50;99.90
2729;DHT22;1372;47.956;7.830;2023-05-17T02:54:29;6.50;99.90
2729;DHT22;1372;47.956;7.830;2023-05-17T02:56:58;6.50;99.90
2729;DHT22;1372;47.956;7.830;2023-05-17T02:59:31;6.40;99.90
2729;DHT22;1372;47.956;7.830;2023-05-17T03:02:02;6.50;99.90
2729;DHT22;1372;47.956;7.830;2023-05-17T03:04:31;6.50;99.90
2729;DHT22;1372;47.956;7.830;2023-05-17T03:07:00;6.60;99.90
2729;DHT22;1372;47.956;7.830;2023-05-17T03:09:31;6.70;99.90
2729;DHT22;1372;47.956;7.830;2023-05-17T03:12:01;6.50;99.90
2729;DHT22;1372;47.956;7.830;2023-05-17T03:14:31;6.50;99.90
2729;DHT22;1372;47.956;7.830;2023-05-17T03:17:00;6.50;99.90
2729;DHT22;1372;47.956;7.830;2023-05-17T03:19:28;6.60;99.90
2729;DHT22;1372;47.956;7.830;2023-05-17T03:22:00;6.60;99.90
2729;DHT22;1372;47.956;7.830;2023-05-17T03:24:29;6.70;99.90
2729;DHT22;1372;47.956;7.830;2023-05-17T03:27:00;6.60;99.90
2729;DHT22;1372;47.956;7.830;2023-05-17T03:29:30;6.70;99.90
2729;DHT22;1372;47.956;7.830;2023-05-17T03:32:00;6.90;99.90
2729;DHT22;1372;47.956;7.830;2023-05-17T03:34:29;6.80;99.90
2729;DHT22;1372;47.956;7.830;2023-05-17T03:36:59;6.90;99.90
2729;DHT22;1372;47.956;7.830;2023-05-17T03:39:29;6.90;99.90
2729;DHT22;1372;47.956;7.830;2023-05-17T03:41:58;7.10;99.90
2729;DHT22;1372;47.956;7.830;2023-05-17T03:44:28;7.20;99.90
2729;DHT22;1372;47.956;7.830;2023-05-17T03:46:58;7.20;99.90
2729;DHT22;1372;47.956;7.830;2023-05-17T03:49:27;7.20;99.90
2729;DHT22;1372;47.956;7.830;2023-05-17T03:51:55;7.20;99.90
2729;DHT22;1372;47.956;7.830;2023-05-17T03:54:24;7.10;99.90
2729;DHT22;1372;47.956;7.830;2023-05-17T03:56:53;7.10;99.90
2729;DHT22;1372;47.956;7.830;2023-05-17T03:59:22;7.10;99.90
2729;DHT22;1372;47.956;7.830;2023-05-17T04:01:50;7.20;99.90
2729;DHT22;1372;47.956;7.830;2023-05-17T04:04:21;7.20;99.90
2729;DHT22;1372;47.956;7.830;2023-05-17T04:06:50;7.40;99.90
2729;DHT22;1372;47.956;7.830;2023-05-17T04:09:19;7.30;99.90
2729;DHT22;1372;47.956;7.830;2023-05-17T04:11:48;7.40;99.90
2729;DHT22;1372;47.956;7.830;2023-05-17T04:14:17;7.40;99.90
2729;DHT22;1372;47.956;7.830;2023-05-17T04:16:46;7.30;99.90
2729;DHT22;1372;47.956;7.830;2023-05-17T04:19:14;7.20;99.90
2729;DHT22;1372;47.956;7.830;2023-05-17T04:21:45;7.40;99.90
2729;DHT22;1372;47.956;7.830;2023-05-17T04:24:14;7.50;99.90
2729;DHT22;1372;47.956;7.830;2023-05-17T04:26:43;7.50;99.90
2729;DHT22;1372;47.956;7.830;2023-05-17T04:29:12;7.50;99.90
2729;DHT22;1372;47.956;7.830;2023-05-17T04:31:41;7.40;99.90
2729;DHT22;1372;47.956;7.830;2023-05-17T04:34:10;7.40;99.90
2729;DHT22;1372;47.956;7.830;2023-05-17T04:36:40;7.50;99.90
2729;DHT22;1372;47.956;7.830;2023-05-17T04:39:12;7.50;99.90
2729;DHT22;1372;47.956;7.830;2023-05-17T04:41:41;7.40;99.90
2729;DHT22;1372;47.956;7.830;2023-05-17T04:44:09;7.50;99.90
2729;DHT22;1372;47.956;7.830;2023-05-17T04:46:43;7.40;99.90
2729;DHT22;1372;47.956;7.830;2023-05-17T04:49:15;7.40;99.90
2729;DHT22;1372;47.956;7.830;2023-05-17T04:51:48;7.50;99.90
2729;DHT22;1372;47.956;7.830;2023-05-17T04:54:18;7.50;99.90
2729;DHT22;1372;47.956;7.830;2023-05-17T04:56:47;7.60;99.90
2729;DHT22;1372;47.956;7.830;2023-05-17T04:59:15;7.60;99.90
2729;DHT22;1372;47.956;7.830;2023-05-17T05:01:45;7.60;99.90
2729;DHT22;1372;47.956;7.830;2023-05-17T05:04:14;7.60;99.90
2729;DHT22;1372;47.956;7.830;2023-05-17T05:06:45;7.60;99.90
2729;DHT22;1372;47.956;7.830;2023-05-17T05:09:14;7.70;99.90
2729;DHT22;1372;47.956;7.830;2023-05-17T05:11:44;7.80;99.90
2729;DHT22;1372;47.956;7.830;2023-05-17T05:14:16;7.80;99.90
2729;DHT22;1372;47.956;7.830;2023-05-17T05:16:47;7.70;99.90
2729;DHT22;1372;47.956;7.830;2023-05-17T05:19:15;7.70;99.90
2729;DHT22;1372;47.956;7.830;2023-05-17T05:21:45;7.70;99.90
2729;DHT22;1372;47.956;7.830;2023-05-17T05:24:14;7.70;99.90
2729;DHT22;1372;47.956;7.830;2023-05-17T05:26:44;7.70;99.90
2729;DHT22;1372;47.956;7.830;2023-05-17T05:29:16;7.70;99.90
2729;DHT22;1372;47.956;7.830;2023-05-17T05:31:45;7.80;99.90
2729;DHT22;1372;47.956;7.830;2023-05-17T05:34:14;7.70;99.90
2729;DHT22;1372;47.956;7.830;2023-05-17T05:36:45;7.80;99.90
2729;DHT22;1372;47.956;7.830;2023-05-17T05:39:14;7.80;99.90
2729;DHT22;1372;47.956;7.830;2023-05-17T05:41:44;7.80;99.90
2729;DHT22;1372;47.956;7.830;2023-05-17T05:44:13;7.80;99.90
2729;DHT22;1372;47.956;7.830;2023-05-17T05:46:42;7.90;99.90
2729;DHT22;1372;47.956;7.830;2023-05-17T05:49:11;7.90;99.90
2729;DHT22;1372;47.956;7.830;2023-05-17T05:51:42;7.90;99.90
2729;DHT22;1372;47.956;7.830;2023-05-17T05:54:14;8.00;99.90
2729;DHT22;1372;47.956;7.830;2023-05-17T05:56:44;8.20;99.90
2729;DHT22;1372;47.956;7.830;2023-05-17T05:59:13;8.20;99.90
2729;DHT22;1372;47.956;7.830;2023-05-17T06:01:42;8.20;99.90
2729;DHT22;1372;47.956;7.830;2023-05-17T06:04:11;8.30;99.90
2729;DHT22;1372;47.956;7.830;2023-05-17T06:06:40;8.40;99.90
2729;DHT22;1372;47.956;7.830;2023-05-17T06:09:08;8.50;99.90
2729;DHT22;1372;47.956;7.830;2023-05-17T06:11:40;8.50;99.90
2729;DHT22;1372;47.956;7.830;2023-05-17T06:14:13;8.50;99.90
2729;DHT22;1372;47.956;7.830;2023-05-17T06:16:42;8.70;99.90
2729;DHT22;1372;47.956;7.830;2023-05-17T06:19:11;8.70;99.90
2729;DHT22;1372;47.956;7.830;2023-05-17T06:21:39;8.80;99.90
2729;DHT22;1372;47.956;7.830;2023-05-17T06:24:11;8.90;99.90
2729;DHT22;1372;47.956;7.830;2023-05-17T06:26:42;9.00;99.90
2729;DHT22;1372;47.956;7.830;2023-05-17T06:29:12;9.00;99.90
2729;DHT22;1372;47.956;7.830;2023-05-17T06:31:41;9.10;99.90
2729;DHT22;1372;47.956;7.830;2023-05-17T06:34:10;9.10;99.90
2729;DHT22;1372;47.956;7.830;2023-05-17T06:36:41;9.10;99.90
2729;DHT22;1372;47.956;7.830;2023-05-17T06:39:10;9.20;99.90
2729;DHT22;1372;47.956;7.830;2023-05-17T06:41:39;9.30;99.90
2729;DHT22;1372;47.956;7.830;2023-05-17T06:44:08;9.40;99.90
2729;DHT22;1372;47.956;7.830;2023-05-17T06:46:38;9.50;99.90
2729;DHT22;1372;47.956;7.830;2023-05-17T06:49:07;9.60;99.90
2729;DHT22;1372;47.956;7.830;2023-05-17T06:51:36;9.60;99.90
2729;DHT22;1372;47.956;7.830;2023-05-17T06:54:05;9.80;99.90
2729;DHT22;1372;47.956;7.830;2023-05-17T06:56:44;9.80;99.90
2729;DHT22;1372;47.956;7.830;2023-05-17T06:59:21;9.80;99.90
2729;DHT22;1372;47.956;7.830;2023-05-17T07:01:52;9.90;99.90
2729;DHT22;1372;47.956;7.830;2023-05-17T07:04:20;9.90;99.90
2729;DHT22;1372;47.956;7.830;2023-05-17T07:06:50;10.00;99.90
2729;DHT22;1372;47.956;7.830;2023-05-17T07:09:20;10.20;99.90
2729;DHT22;1372;47.956;7.830;2023-05-17T07:11:49;10.20;99.90
2729;DHT22;1372;47.956;7.830;2023-05-17T07:14:23;10.30;99.90
2729;DHT22;1372;47.956;7.830;2023-05-17T07:16:53;10.40;99.90
2729;DHT22;1372;47.956;7.830;2023-05-17T07:19:22;10.40;99.90
2729;DHT22;1372;47.956;7.830;2023-05-17T07:21:54;10.50;99.90
2729;DHT22;1372;47.956;7.830;2023-05-17T07:24:23;10.50;99.90
2729;DHT22;1372;47.956;7.830;2023-05-17T07:26:52;10.60;99.90
2729;DHT22;1372;47.956;7.830;2023-05-17T07:29:21;10.60;99.90
2729;DHT22;1372;47.956;7.830;2023-05-17T07:31:50;10.70;99.90
2729;DHT22;1372;47.956;7.830;2023-05-17T07:34:20;10.70;99.90
2729;DHT22;1372;47.956;7.830;2023-05-17T07:36:49;10.80;99.90
2729;DHT22;1372;47.956;7.830;2023-05-17T07:39:21;10.80;99.90
2729;DHT22;1372;47.956;7.830;2023-05-17T07:41:50;10.70;99.90
2729;DHT22;1372;47.956;7.830;2023-05-17T07:44:21;10.80;99.90
2729;DHT22;1372;47.956;7.830;2023-05-17T07:46:51;10.80;99.90
2729;DHT22;1372;47.956;7.830;2023-05-17T07:49:22;11.00;99.90
2729;DHT22;1372;47.956;7.830;2023-05-17T07:51:51;11.10;99.90
2729;DHT22;1372;47.956;7.830;2023-05-17T07:54:22;11.10;99.90
2729;DHT22;1372;47.956;7.830;2023-05-17T07:56:53;11.10;99.90
2729;DHT22;1372;47.956;7.830;2023-05-17T07:59:22;11.20;99.90
2729;DHT22;1372;47.956;7.830;2023-05-17T08:01:52;11.20;99.90
2729;DHT22;1372;47.956;7.830;2023-05-17T08:04:23;11.20;99.90
2729;DHT22;1372;47.956;7.830;2023-05-17T08:06:52;11.40;99.90
2729;DHT22;1372;47.956;7.830;2023-05-17T08:09:21;11.40;99.90
2729;DHT22;1372;47.956;7.830;2023-05-17T08:11:50;11.40;99.90
2729;DHT22;1372;47.956;7.830;2023-05-17T08:14:22;11.40;99.90
2729;DHT22;1372;47.956;7.830;2023-05-17T08:16:53;11.50;99.90
2729;DHT22;1372;47.956;7.830;2023-05-17T08:19:23;11.60;99.90
2729;DHT22;1372;47.956;7.830;2023-05-17T08:21:55;11.50;99.90
2729;DHT22;1372;47.956;7.830;2023-05-17T08:24:27;11.60;99.90
2729;DHT22;1372;47.956;7.830;2023-05-17T08:26:56;11.60;99.90
2729;DHT22;1372;47.956;7.830;2023-05-17T08:29:25;11.70;99.90
2729;DHT22;1372;47.956;7.830;2023-05-17T08:31:55;11.60;99.90
2729;DHT22;1372;47.956;7.830;2023-05-17T08:34:25;11.60;99.90
2729;DHT22;1372;47.956;7.830;2023-05-17T08:36:54;11.60;99.90
2729;DHT22;1372;47.956;7.830;2023-05-17T08:39:26;11.70;99.90
2729;DHT22;1372;47.956;7.830;2023-05-17T08:41:55;11.90;99.90
2729;DHT22;1372;47.956;7.830;2023-05-17T08:44:26;12.00;99.90
2729;DHT22;1372;47.956;7.830;2023-05-17T08:46:55;11.90;99.90
2729;DHT22;1372;47.956;7.830;2023-05-17T08:49:29;11.90;99.90
2729;DHT22;1372;47.956;7.830;2023-05-17T08:52:00;12.00;99.90
2729;DHT22;1372;47.956;7.830;2023-05-17T08:54:36;12.20;99.90
2729;DHT22;1372;47.956;7.830;2023-05-17T08:57:05;12.10;99.90
2729;DHT22;1372;47.956;7.830;2023-05-17T08:59:38;12.10;99.90
2729;DHT22;1372;47.956;7.830;2023-05-17T09:02:09;12.40;99.90
2729;DHT22;1372;47.956;7.830;2023-05-17T09:04:39;12.60;99.90
2729;DHT22;1372;47.956;7.830;2023-05-17T09:07:09;12.60;99.90
2729;DHT22;1372;47.956;7.830;2023-05-17T09:09:38;12.50;99.90
2729;DHT22;1372;47.956;7.830;2023-05-17T09:12:08;12.40;99.90
2729;DHT22;1372;47.956;7.830;2023-05-17T09:14:37;12.30;99.90
2729;DHT22;1372;47.956;7.830;2023-05-17T09:17:06;12.40;99.90
2729;DHT22;1372;47.956;7.830;2023-05-17T09:19:43;12.30;99.90
2729;DHT22;1372;47.956;7.830;2023-05-17T09:22:13;12.40;99.90
2729;DHT22;1372;47.956;7.830;2023-05-17T09:24:43;12.40;99.90
2729;DHT22;1372;47.956;7.830;2023-05-17T09:27:14;12.40;99.90
2729;DHT22;1372;47.956;7.830;2023-05-17T09:29:45;12.40;99.90
2729;DHT22;1372;47.956;7.830;2023-05-17T09:32:15;12.50;99.90
2729;DHT22;1372;47.956;7.830;2023-05-17T09:34:48;12.60;99.90
2729;DHT22;1372;47.956;7.830;2023-05-17T09:37:18;12.70;99.90
2729;DHT22;1372;47.956;7.830;2023-05-17T09:39:50;12.70;99.90
2729;DHT22;1372;47.956;7.830;2023-05-17T09:42:25;12.80;99.90
2729;DHT22;1372;47.956;7.830;2023-05-17T09:44:55;12.80;99.90
2729;DHT22;1372;47.956;7.830;2023-05-17T09:47:27;12.80;99.90
2729;DHT22;1372;47.956;7.830;2023-05-17T09:50:00;12.80;99.90
2729;DHT22;1372;47.956;7.830;2023-05-17T09:52:30;12.80;99.90
2729;DHT22;1372;47.956;7.830;2023-05-17T09:55:04;12.80;99.90
2729;DHT22;1372;47.956;7.830;2023-05-17T09:57:36;12.70;99.90
2729;DHT22;1372;47.956;7.830;2023-05-17T10:00:08;12.80;99.90
2729;DHT22;1372;47.956;7.830;2023-05-17T10:02:39;12.80;99.90
2729;DHT22;1372;47.956;7.830;2023-05-17T10:05:12;12.90;99.90
2729;DHT22;1372;47.956;7.830;2023-05-17T10:07:42;13.00;99.90
2729;DHT22;1372;47.956;7.830;2023-05-17T10:10:16;13.10;99.90
2729;DHT22;1372;47.956;7.830;2023-05-17T10:12:47;13.30;99.90
2729;DHT22;1372;47.956;7.830;2023-05-17T10:15:16;13.40;99.90
2729;DHT22;1372;47.956;7.830;2023-05-17T10:17:46;13.50;99.90
2729;DHT22;1372;47.956;7.830;2023-05-17T10:20:16;13.60;99.90
2729;DHT22;1372;47.956;7.830;2023-05-17T10:22:49;13.60;99.90
2729;DHT22;1372;47.956;7.830;2023-05-17T10:25:19;13.50;99.90
2729;DHT22;1372;47.956;7.830;2023-05-17T10:27:49;13.50;99.90
2729;DHT22;1372;47.956;7.830;2023-05-17T10:30:21;13.40;99.90
2729;DHT22;1372;47.956;7.830;2023-05-17T10:32:51;13.50;99.90
2729;DHT22;1372;47.956;7.830;2023-05-17T10:35:23;13.70;99.90
2729;DHT22;1372;47.956;7.830;2023-05-17T10:37:52;13.80;99.90
2729;DHT22;1372;47.956;7.830;2023-05-17T10:40:21;13.90;99.90
2729;DHT22;1372;47.956;7.830;2023-05-17T10:42:54;14.00;99.90
2729;DHT22;1372;47.956;7.830;2023-05-17T10:45:31;14.10;99.90
2729;DHT22;1372;47.956;7.830;2023-05-17T10:48:04;14.00;99.90
2729;DHT22;1372;47.956;7.830;2023-05-17T10:50:37;13.90;99.90
2729;DHT22;1372;47.956;7.830;2023-05-17T10:53:13;13.90;99.90
2729;DHT22;1372;47.956;7.830;2023-05-17T10:55:43;14.00;99.90
2729;DHT22;1372;47.956;7.830;2023-05-17T10:58:14;14.00;99.90
2729;DHT22;1372;47.956;7.830;2023-05-17T11:00:46;13.90;99.90
2729;DHT22;1372;47.956;7.830;2023-05-17T11:03:17;13.80;99.90
2729;DHT22;1372;47.956;7.830;2023-05-17T11:06:16;13.80;99.90
2729;DHT22;1372;47.956;7.830;2023-05-17T11:09:05;14.00;99.90
2729;DHT22;1372;47.956;7.830;2023-05-17T11:11:35;14.00;99.90
2729;DHT22;1372;47.956;7.830;2023-05-17T11:14:04;14.10;99.90
2729;DHT22;1372;47.956;7.830;2023-05-17T11:16:36;13.90;99.90
2729;DHT22;1372;47.956;7.830;2023-05-17T11:19:09;13.90;99.90
2729;DHT22;1372;47.956;7.830;2023-05-17T11:21:47;13.90;99.90
2729;DHT22;1372;47.956;7.830;2023-05-17T11:24:24;14.00;99.90
2729;DHT22;1372;47.956;7.830;2023-05-17T11:26:54;14.10;99.90
2729;DHT22;1372;47.956;7.830;2023-05-17T11:29:28;14.40;99.90
2729;DHT22;1372;47.956;7.830;2023-05-17T11:31:58;14.50;99.90
2729;DHT22;1372;47.956;7.830;2023-05-17T11:34:27;14.60;99.90
2729;DHT22;1372;47.956;7.830;2023-05-17T11:36:57;14.40;99.90
2729;DHT22;1372;47.956;7.830;2023-05-17T11:39:28;14.40;99.90
2729;DHT22;1372;47.956;7.830;2023-05-17T11:41:57;14.30;99.90
2729;DHT22;1372;47.956;7.830;2023-05-17T11:44:28;14.20;99.90
2729;DHT22;1372;47.956;7.830;2023-05-17T11:47:02;14.30;99.90
2729;DHT22;1372;47.956;7.830;2023-05-17T11:49:37;14.50;99.90
2729;DHT22;1372;47.956;7.830;2023-05-17T11:52:08;14.40;99.90
2729;DHT22;1372;47.956;7.830;2023-05-17T11:54:39;14.30;99.90
2729;DHT22;1372;47.956;7.830;2023-05-17T11:57:30;14.20;99.90
2729;DHT22;1372;47.956;7.830;2023-05-17T12:00:00;14.10;99.90
2729;DHT22;1372;47.956;7.830;2023-05-17T12:02:31;14.10;99.90
2729;DHT22;1372;47.956;7.830;2023-05-17T12:05:03;14.10;99.90
2729;DHT22;1372;47.956;7.830;2023-05-17T12:07:34;14.20;99.90
2729;DHT22;1372;47.956;7.830;2023-05-17T12:10:03;14.20;99.90
2729;DHT22;1372;47.956;7.830;2023-05-17T12:12:33;14.20;99.90
2729;DHT22;1372;47.956;7.830;2023-05-17T12:15:02;14.20;99.90
2729;DHT22;1372;47.956;7.830;2023-05-17T12:17:37;14.30;99.90
2729;DHT22;1372;47.956;7.830;2023-05-17T12:20:10;14.50;99.90
2729;DHT22;1372;47.956;7.830;2023-05-17T12:22:55;14.60;99.90
2729;DHT22;1372;47.956;7.830;2023-05-17T12:25:25;14.60;99.90
2729;DHT22;1372;47.956;7.830;2023-05-17T12:28:14;14.50;99.90
2729;DHT22;1372;47.956;7.830;2023-05-17T12:30:44;14.40;99.90
2729;DHT22;1372;47.956;7.830;2023-05-17T12:33:13;14.30;99.90
2729;DHT22;1372;47.956;7.830;2023-05-17T12:35:42;14.40;99.90
2729;DHT22;1372;47.956;7.830;2023-05-17T12:38:13;14.50;99.90
2729;DHT22;1372;47.956;7.830;2023-05-17T12:40:42;14.40;99.90
2729;DHT22;1372;47.956;7.830;2023-05-17T12:43:11;14.20;99.90
2729;DHT22;1372;47.956;7.830;2023-05-17T12:45:40;14.30;99.90
2729;DHT22;1372;47.956;7.830;2023-05-17T12:48:10;14.50;99.90
2729;DHT22;1372;47.956;7.830;2023-05-17T12:50:41;14.60;99.90
2729;DHT22;1372;47.956;7.830;2023-05-17T12:53:14;14.70;99.90
2729;DHT22;1372;47.956;7.830;2023-05-17T12:55:43;14.80;99.90
2729;DHT22;1372;47.956;7.830;2023-05-17T12:58:11;14.90;99.90
2729;DHT22;1372;47.956;7.830;2023-05-17T13:00:54;15.00;99.90
2729;DHT22;1372;47.956;7.830;2023-05-17T13:03:24;15.20;99.90
2729;DHT22;1372;47.956;7.830;2023-05-17T13:06:04;15.20;99.90
2729;DHT22;1372;47.956;7.830;2023-05-17T13:08:38;14.90;99.90
2729;DHT22;1372;47.956;7.830;2023-05-17T13:11:11;14.60;99.90
2729;DHT22;1372;47.956;7.830;2023-05-17T13:13:40;14.40;99.90
2729;DHT22;1372;47.956;7.830;2023-05-17T13:16:09;14.50;99.90
2729;DHT22;1372;47.956;7.830;2023-05-17T13:18:51;14.70;99.90
2729;DHT22;1372;47.956;7.830;2023-05-17T13:21:23;14.70;99.90
2729;DHT22;1372;47.956;7.830;2023-05-17T13:23:53;14.70;99.90
2729;DHT22;1372;47.956;7.830;2023-05-17T13:26:22;14.80;99.90
2729;DHT22;1372;47.956;7.830;2023-05-17T13:28:53;15.00;99.90
2729;DHT22;1372;47.956;7.830;2023-05-17T13:31:25;15.30;99.90
2729;DHT22;1372;47.956;7.830;2023-05-17T13:33:53;15.50;99.90
2729;DHT22;1372;47.956;7.830;2023-05-17T13:36:23;15.60;99.90
2729;DHT22;1372;47.956;7.830;2023-05-17T13:38:53;15.50;99.90
2729;DHT22;1372;47.956;7.830;2023-05-17T13:41:23;15.30;99.90
2729;DHT22;1372;47.956;7.830;2023-05-17T13:43:51;15.30;99.90
2729;DHT22;1372;47.956;7.830;2023-05-17T13:46:20;15.10;99.90
2729;DHT22;1372;47.956;7.830;2023-05-17T13:48:49;14.90;99.90
2729;DHT22;1372;47.956;7.830;2023-05-17T13:51:18;14.80;99.90
2729;DHT22;1372;47.956;7.830;2023-05-17T13:53:47;14.90;99.90
2729;DHT22;1372;47.956;7.830;2023-05-17T13:56:17;15.10;99.90
2729;DHT22;1372;47.956;7.830;2023-05-17T13:58:51;15.30;99.90
2729;DHT22;1372;47.956;7.830;2023-05-17T14:01:20;15.40;99.90
2729;DHT22;1372;47.956;7.830;2023-05-17T14:03:49;15.30;99.90
2729;DHT22;1372;47.956;7.830;2023-05-17T14:06:18;15.40;99.90
2729;DHT22;1372;47.956;7.830;2023-05-17T14:08:54;15.50;99.90
2729;DHT22;1372;47.956;7.830;2023-05-17T14:11:26;15.50;99.90
2729;DHT22;1372;47.956;7.830;2023-05-17T14:13:55;15.60;99.90
2729;DHT22;1372;47.956;7.830;2023-05-17T14:16:25;15.40;99.90
2729;DHT22;1372;47.956;7.830;2023-05-17T14:18:54;15.20;99.90
2729;DHT22;1372;47.956;7.830;2023-05-17T14:21:30;15.00;99.90
2729;DHT22;1372;47.956;7.830;2023-05-17T14:23:59;15.10;99.90
2729;DHT22;1372;47.956;7.830;2023-05-17T14:26:30;15.00;99.90
2729;DHT22;1372;47.956;7.830;2023-05-17T14:29:00;14.90;99.90
2729;DHT22;1372;47.956;7.830;2023-05-17T14:31:28;14.90;99.90
2729;DHT22;1372;47.956;7.830;2023-05-17T14:33:59;14.70;99.90
2729;DHT22;1372;47.956;7.830;2023-05-17T14:36:32;14.60;99.90
2729;DHT22;1372;47.956;7.830;2023-05-17T14:39:03;14.60;99.90
2729;DHT22;1372;47.956;7.830;2023-05-17T14:41:34;14.70;99.90
2729;DHT22;1372;47.956;7.830;2023-05-17T14:44:05;14.90;99.90
2729;DHT22;1372;47.956;7.830;2023-05-17T14:46:33;15.30;99.90
2729;DHT22;1372;47.956;7.830;2023-05-17T14:49:02;15.40;99.90
2729;DHT22;1372;47.956;7.830;2023-05-17T14:51:32;15.30;99.90
2729;DHT22;1372;47.956;7.830;2023-05-17T14:54:01;15.20;99.90
2729;DHT22;1372;47.956;7.830;2023-05-17T14:56:30;15.10;99.90
2729;DHT22;1372;47.956;7.830;2023-05-17T14:59:01;15.30;99.90
2729;DHT22;1372;47.956;7.830;2023-05-17T15:01:30;15.50;99.90
2729;DHT22;1372;47.956;7.830;2023-05-17T15:03:59;15.40;99.90
2729;DHT22;1372;47.956;7.830;2023-05-17T15:06:28;15.20;99.90
2729;DHT22;1372;47.956;7.830;2023-05-17T15:08:58;15.00;99.90
2729;DHT22;1372;47.956;7.830;2023-05-17T15:11:29;14.90;99.90
2729;DHT22;1372;47.956;7.830;2023-05-17T15:14:00;14.80;99.90
2729;DHT22;1372;47.956;7.830;2023-05-17T15:16:32;14.80;99.90
2729;DHT22;1372;47.956;7.830;2023-05-17T15:19:02;14.70;99.90
2729;DHT22;1372;47.956;7.830;2023-05-17T15:21:30;14.80;99.90
2729;DHT22;1372;47.956;7.830;2023-05-17T15:23:59;15.20;99.90
2729;DHT22;1372;47.956;7.830;2023-05-17T15:26:29;15.60;99.90
2729;DHT22;1372;47.956;7.830;2023-05-17T15:28:58;15.70;99.90
2729;DHT22;1372;47.956;7.830;2023-05-17T15:31:28;15.80;99.90
2729;DHT22;1372;47.956;7.830;2023-05-17T15:33:57;15.90;99.90
2729;DHT22;1372;47.956;7.830;2023-05-17T15:36:27;16.10;99.90
2729;DHT22;1372;47.956;7.830;2023-05-17T15:38:56;15.70;99.90
2729;DHT22;1372;47.956;7.830;2023-05-17T15:41:29;15.50;99.90
2729;DHT22;1372;47.956;7.830;2023-05-17T15:44:00;15.40;99.90
2729;DHT22;1372;47.956;7.830;2023-05-17T15:46:29;15.20;99.90
2729;DHT22;1372;47.956;7.830;2023-05-17T15:48:58;15.20;99.90
2729;DHT22;1372;47.956;7.830;2023-05-17T15:51:27;15.50;99.90
2729;DHT22;1372;47.956;7.830;2023-05-17T15:53:56;15.60;99.90
2729;DHT22;1372;47.956;7.830;2023-05-17T15:56:28;15.80;99.90
2729;DHT22;1372;47.956;7.830;2023-05-17T15:58:57;15.70;99.90
2729;DHT22;1372;47.956;7.830;2023-05-17T16:01:32;15.70;99.90
2729;DHT22;1372;47.956;7.830;2023-05-17T16:04:02;15.80;99.90
2729;DHT22;1372;47.956;7.830;2023-05-17T16:06:31;15.80;99.90
2729;DHT22;1372;47.956;7.830;2023-05-17T16:09:03;15.80;99.90
2729;DHT22;1372;47.956;7.830;2023-05-17T16:11:41;15.70;99.90
2729;DHT22;1372;47.956;7.830;2023-05-17T16:14:10;15.80;99.90
2729;DHT22;1372;47.956;7.830;2023-05-17T16:16:40;16.10;99.90
2729;DHT22;1372;47.956;7.830;2023-05-17T16:19:12;16.30;99.90
2729;DHT22;1372;47.956;7.830;2023-05-17T16:21:42;16.40;99.90
2729;DHT22;1372;47.956;7.830;2023-05-17T16:24:13;16.40;99.90
2729;DHT22;1372;47.956;7.830;2023-05-17T16:26:47;16.20;99.90
2729;DHT22;1372;47.956;7.830;2023-05-17T16:29:16;16.00;99.90
2729;DHT22;1372;47.956;7.830;2023-05-17T16:31:48;15.90;99.90